Terminal Aerodrome Forecast
Issued by NWS Boston, MA

Current Version | Previous Version | Text Only | Print | Product List | Glossary On
Versions: 1 2 3 4 5 6 7 8 9 10 11 12 13 14 15 16 17 18
000 FTUS41 KBOX 231729 TAFORH TAF KORH 231729Z 2318/2418 30013G23KT P6SM SKC FM240000 29006KT P6SM SCT250 FM240800 21006KT P6SM OVC100 FM241600 21013G26KT P6SM VCSH OVC030=

USA.gov is the U.S. government's official web portal to all federal, state and local government web resources and services.